Harrison, New York
Current Conditions -  °F | °C
As of 12:56 AM on Wednesday 26 Nov 2014 (Local Time) from KHPN Reporting Station
Clear Clear  
Wind Chill: 46°   Ceiling: Unl
Heat Index: 46°   Visibility: 10mi
Dew Point: 29°   Wind: 3mph
Humidity: 51%   Direction: NA
Pressure: 30.13"   Gusts: NA
Location:  40.97°N, 73.71°W
Report Text: KHPN 260556Z VRB03KT 10SM CLR 08/M02 A3013 RMK AO2 SLP206 T00781017 10089 20072 50009
Loading
Personal Weather Stations






























Interactive Weather Map New forecast layout! Learn more

10-Day Weather Forecast

Advertisements
Track Severe Weather on mobile